Time;durP1;ratioP1;P1;durP2;ratioP2;P2;SDS_P1;SDS_P2;PMS_P1;PMS_P2;Temp;Humidity;BMP_temperature;BMP_pressure;BME280_temperature;BME280_humidity;BME280_pressure;Samples;Min_cycle;Max_cycle;Signal;HPM_P1;HPM_P2
2022/11/01 00:01:42;;;;;;;16.27;4.10;;;15.50;99.90;;;;;;5092042;28;20625;-51
2022/11/01 00:04:12;;;;;;;10.23;4.22;;;15.50;99.90;;;;;;5073984;28;20263;-52
2022/11/01 00:06:38;;;;;;;9.00;4.13;;;15.50;99.90;;;;;;5092445;28;20642;-51
2022/11/01 00:09:04;;;;;;;10.20;4.55;;;15.60;99.90;;;;;;5073907;28;20193;-51
2022/11/01 00:11:30;;;;;;;5.20;3.50;;;15.50;99.90;;;;;;5092079;28;20164;-51
2022/11/01 00:13:56;;;;;;;8.50;3.95;;;15.50;99.90;;;;;;5091925;28;20191;-51
2022/11/01 00:16:22;;;;;;;6.55;4.07;;;15.60;99.90;;;;;;5091873;28;20205;-51
2022/11/01 00:18:48;;;;;;;11.68;4.55;;;15.60;99.90;;;;;;5092294;28;20168;-51
2022/11/01 00:21:14;;;;;;;9.25;5.13;;;15.60;99.90;;;;;;5092037;28;20192;-51
2022/11/01 00:23:40;;;;;;;7.28;4.18;;;15.60;99.90;;;;;;5091957;28;20256;-51
2022/11/01 00:26:06;;;;;;;5.38;3.78;;;15.60;99.90;;;;;;5073812;28;20211;-51
2022/11/01 00:28:32;;;;;;;10.75;3.83;;;15.50;99.90;;;;;;5091825;28;20648;-51
2022/11/01 00:30:58;;;;;;;7.40;3.63;;;15.50;99.90;;;;;;5092227;28;20165;-51
2022/11/01 00:33:25;;;;;;;7.03;3.72;;;17.60;99.90;;;;;;5092032;28;20173;-51
2022/11/01 00:35:51;;;;;;;8.40;3.92;;;15.40;99.90;;;;;;5091797;28;20250;-51
2022/11/01 00:38:17;;;;;;;8.77;4.32;;;15.50;99.90;;;;;;5091708;28;20532;-51
2022/11/01 00:40:43;;;;;;;6.82;3.70;;;15.40;99.90;;;;;;5091330;28;20181;-51
2022/11/01 00:43:10;;;;;;;9.52;4.03;;;15.40;99.90;;;;;;5091294;28;20161;-51
2022/11/01 00:45:36;;;;;;;9.73;4.15;;;15.40;99.90;;;;;;5091650;28;20170;-51
2022/11/01 00:48:02;;;;;;;9.65;5.38;;;15.40;99.90;;;;;;5091677;28;20169;-52
2022/11/01 00:50:28;;;;;;;17.15;7.47;;;15.40;99.90;;;;;;5092047;28;20165;-51
2022/11/01 00:52:54;;;;;;;10.85;4.93;;;15.40;99.90;;;;;;5092102;28;20221;-51
2022/11/01 00:55:19;;;;;;;12.50;4.75;;;15.50;99.90;;;;;;5091578;28;20296;-51
2022/11/01 00:57:45;;;;;;;10.13;4.45;;;15.40;99.90;;;;;;5091594;28;20170;-51
2022/11/01 01:00:13;;;;;;;6.90;4.10;;;15.40;99.90;;;;;;5091845;28;20560;-52
2022/11/01 01:02:39;;;;;;;15.90;4.82;;;15.50;99.90;;;;;;5091489;28;20262;-51
2022/11/01 01:05:06;;;;;;;12.35;4.38;;;15.50;99.90;;;;;;5091172;28;20166;-48
2022/11/01 01:07:31;;;;;;;9.05;4.40;;;15.60;99.90;;;;;;5091236;28;20177;-49
2022/11/01 01:09:58;;;;;;;8.63;5.30;;;15.60;99.90;;;;;;5091606;28;20209;-51
2022/11/01 01:12:23;;;;;;;7.53;4.00;;;15.50;99.90;;;;;;5091386;28;20749;-51
2022/11/01 01:14:49;;;;;;;11.07;5.32;;;15.60;99.90;;;;;;5091354;28;20166;-51
2022/11/01 01:17:16;;;;;;;11.15;5.43;;;15.60;99.90;;;;;;5091361;28;20248;-51
2022/11/01 01:19:42;;;;;;;9.85;4.40;;;15.60;99.90;;;;;;5091424;28;20154;-51
2022/11/01 01:22:07;;;;;;;18.05;9.63;;;15.60;99.90;;;;;;5091545;28;20234;-51
2022/11/01 01:24:33;;;;;;;12.45;5.47;;;15.70;99.90;;;;;;5093793;28;20244;-51
2022/11/01 01:26:59;;;;;;;10.63;4.82;;;15.70;99.90;;;;;;5095118;28;20197;-51
2022/11/01 01:29:24;;;;;;;16.25;6.50;;;15.70;99.90;;;;;;5095422;28;20189;-51
2022/11/01 01:31:50;;;;;;;8.05;5.00;;;15.70;99.90;;;;;;5094946;28;20655;-51
2022/11/01 01:34:17;;;;;;;20.13;9.52;;;15.70;99.90;;;;;;5095260;28;20261;-51
2022/11/01 01:36:43;;;;;;;9.15;4.70;;;15.70;99.90;;;;;;5095004;28;20205;-51
2022/11/01 01:39:09;;;;;;;7.80;4.63;;;15.70;99.90;;;;;;5094933;28;20248;-51
2022/11/01 01:44:50;;;;;;;7.32;4.13;;;15.50;99.90;;;;;;5095104;28;20192;-51
2022/11/01 01:47:20;;;;;;;13.45;4.35;;;15.60;99.90;;;;;;5095252;28;20180;-51
2022/11/01 01:49:50;;;;;;;14.63;5.93;;;15.50;99.90;;;;;;5094446;28;20169;-51
2022/11/01 01:52:17;;;;;;;13.02;3.67;;;15.50;99.90;;;;;;5094685;28;20172;-51
2022/11/01 01:54:42;;;;;;;9.85;4.32;;;15.60;99.90;;;;;;5094527;28;20204;-51
2022/11/01 01:57:08;;;;;;;10.25;4.10;;;15.50;99.90;;;;;;5094827;28;20205;-51
2022/11/01 01:59:35;;;;;;;8.23;4.47;;;15.50;99.90;;;;;;5094476;28;20498;-51
2022/11/01 02:02:01;;;;;;;6.57;4.15;;;15.60;99.90;;;;;;5094368;28;20296;-51
2022/11/01 02:04:49;;;;;;;10.52;4.80;;;15.60;99.90;;;;;;5094780;28;20680;-51
2022/11/01 02:07:15;;;;;;;12.43;5.07;;;15.60;99.90;;;;;;5094353;28;20234;-52
2022/11/01 02:09:41;;;;;;;15.00;5.75;;;15.90;99.90;;;;;;5094331;28;20633;-52
2022/11/01 02:12:11;;;;;;;12.98;6.03;;;16.00;99.90;;;;;;5094411;28;20169;-52
2022/11/01 02:14:39;;;;;;;12.05;6.22;;;16.00;99.90;;;;;;5094167;28;20161;-51
2022/11/01 02:17:18;;;;;;;14.32;5.70;;;16.10;99.90;;;;;;5094401;28;20181;-52
2022/11/01 02:19:50;;;;;;;9.73;4.80;;;16.20;99.90;;;;;;5094035;28;20165;-52
2022/11/01 02:22:37;;;;;;;10.32;4.75;;;16.20;99.90;;;;;;5094002;28;20225;-52
2022/11/01 02:25:36;;;;;;;11.43;5.68;;;16.20;99.90;;;;;;5093956;28;20169;-52
2022/11/01 02:28:21;;;;;;;17.98;6.28;;;16.20;99.90;;;;;;5094004;28;20166;-51
2022/11/01 02:31:06;;;;;;;14.98;5.75;;;16.10;99.90;;;;;;5094166;28;20170;-51
2022/11/01 02:33:46;;;;;;;18.27;6.47;;;16.20;99.90;;;;;;5093866;28;20226;-52
2022/11/01 02:36:26;;;;;;;14.48;5.47;;;16.40;99.90;;;;;;5092865;28;20232;-51
2022/11/01 02:38:58;;;;;;;9.93;5.10;;;16.40;99.90;;;;;;5093770;28;20299;-52
2022/11/01 02:41:36;;;;;;;18.67;6.18;;;16.40;99.90;;;;;;5094105;28;20203;-52
2022/11/01 02:44:05;;;;;;;12.43;5.85;;;16.30;99.90;;;;;;5093731;28;20193;-51
2022/11/01 02:49:20;;;;;;;6.72;4.18;;;16.60;99.90;;;;;;5093764;28;20250;-52
2022/11/01 02:51:48;;;;;;;8.43;4.75;;;16.70;99.90;;;;;;5093425;28;20167;-52
2022/11/01 02:54:32;;;;;;;12.23;5.47;;;16.60;99.90;;;;;;5093420;28;20169;-51
2022/11/01 02:57:03;;;;;;;19.10;6.38;;;16.50;99.90;;;;;;5093722;28;20665;-52
2022/11/01 02:59:28;;;;;;;10.13;5.80;;;16.40;99.90;;;;;;5093325;28;20207;-52
2022/11/01 03:02:07;;;;;;;7.72;4.68;;;16.40;99.90;;;;;;5093769;28;20213;-52
2022/11/01 03:04:33;;;;;;;12.65;5.20;;;16.60;99.90;;;;;;5093165;28;20165;-52
2022/11/01 03:07:04;;;;;;;12.50;5.35;;;16.50;99.90;;;;;;5093116;28;20188;-52
2022/11/01 03:09:31;;;;;;;11.88;4.88;;;16.50;99.90;;;;;;5093138;28;20201;-51
2022/11/01 03:12:02;;;;;;;8.02;3.97;;;16.50;99.90;;;;;;5093421;28;20165;-52
2022/11/01 03:14:46;;;;;;;7.95;3.85;;;16.60;99.90;;;;;;5093152;28;20161;-52
2022/11/01 03:17:19;;;;;;;11.38;4.28;;;16.60;99.90;;;;;;5093016;28;20632;-52
2022/11/01 03:19:47;;;;;;;9.25;4.55;;;16.60;99.90;;;;;;5092916;28;20620;-52
2022/11/01 03:22:31;;;;;;;15.18;5.53;;;16.70;99.90;;;;;;5092904;28;20636;-52
2022/11/01 03:28:04;;;;;;;17.75;5.43;;;16.70;99.90;;;;;;5093069;28;20168;-52
2022/11/01 03:30:32;;;;;;;12.82;5.28;;;16.60;99.90;;;;;;5092654;28;20647;-52
2022/11/01 03:32:58;;;;;;;9.07;4.30;;;16.60;99.90;;;;;;5092975;28;20548;-52
2022/11/01 03:35:29;;;;;;;10.63;5.05;;;16.70;99.90;;;;;;5092978;28;20200;-52
2022/11/01 03:38:00;;;;;;;9.05;4.07;;;16.70;99.90;;;;;;5092967;28;20180;-53
2022/11/01 03:40:27;;;;;;;12.55;5.13;;;16.70;99.90;;;;;;5092912;28;20192;-52
2022/11/01 03:42:58;;;;;;;10.52;5.72;;;16.70;99.90;;;;;;5093006;28;20168;-52
2022/11/01 03:45:24;;;;;;;18.00;5.85;;;16.60;99.90;;;;;;5092735;28;20168;-51
2022/11/01 03:47:50;;;;;;;16.30;6.03;;;16.60;99.90;;;;;;5092309;28;20161;-51
2022/11/01 03:50:24;;;;;;;15.57;6.63;;;16.60;99.90;;;;;;5092287;28;20171;-51
2022/11/01 03:52:50;;;;;;;12.02;5.55;;;16.60;99.90;;;;;;5092194;28;20815;-52
2022/11/01 03:55:17;;;;;;;10.63;4.90;;;16.60;99.90;;;;;;5091959;28;20280;-50
2022/11/01 03:57:44;;;;;;;10.77;5.88;;;16.60;99.90;;;;;;5091881;28;20173;-52
2022/11/01 04:00:19;;;;;;;12.20;5.72;;;16.60;99.90;;;;;;5091321;28;20636;-52
2022/11/01 04:02:45;;;;;;;11.40;5.47;;;16.70;99.90;;;;;;5091781;28;20216;-51
2022/11/01 04:05:11;;;;;;;11.73;5.07;;;16.60;99.90;;;;;;5092437;28;20183;-52
2022/11/01 04:07:38;;;;;;;10.30;4.60;;;16.60;99.90;;;;;;5092375;28;20210;-52
2022/11/01 04:10:05;;;;;;;10.73;4.68;;;16.60;99.90;;;;;;5091915;28;20169;-52
2022/11/01 04:12:30;;;;;;;9.45;3.97;;;16.50;99.90;;;;;;5092063;28;20165;-52
2022/11/01 04:20:33;;;;;;;11.23;4.32;;;16.40;99.90;;;;;;5092243;28;20171;-52
2022/11/01 04:22:59;;;;;;;9.82;4.10;;;16.40;99.90;;;;;;5091987;28;20189;-52
2022/11/01 04:25:25;;;;;;;9.85;3.30;;;16.30;99.90;;;;;;5092468;28;20173;-52
2022/11/01 04:27:51;;;;;;;10.02;4.57;;;16.30;99.90;;;;;;5092164;28;20703;-53
2022/11/01 04:30:16;;;;;;;11.98;5.00;;;16.40;99.90;;;;;;5091888;28;20643;-52
2022/11/01 04:32:43;;;;;;;11.05;4.78;;;16.40;99.90;;;;;;5091887;28;20636;-52
2022/11/01 04:35:11;;;;;;;9.75;4.20;;;16.30;99.90;;;;;;5073592;28;20619;-52
2022/11/01 04:37:37;;;;;;;11.20;4.03;;;16.30;99.90;;;;;;5091976;28;20180;-52
2022/11/01 04:40:03;;;;;;;6.32;3.17;;;16.30;99.90;;;;;;5091835;28;20600;-52
2022/11/01 04:42:29;;;;;;;12.05;4.18;;;16.30;99.90;;;;;;5091973;28;20215;-52
2022/11/01 04:44:54;;;;;;;10.95;3.80;;;16.20;99.90;;;;;;5092092;28;20165;-52
2022/11/01 04:47:20;;;;;;;12.50;4.25;;;16.20;99.90;;;;;;5091698;28;20176;-52
2022/11/01 04:49:45;;;;;;;13.30;5.78;;;16.20;99.90;;;;;;5091703;28;20153;-52
2022/11/01 04:52:11;;;;;;;13.38;5.43;;;16.30;99.90;;;;;;5091737;28;20176;-51
2022/11/01 04:54:36;;;;;;;13.52;6.00;;;16.30;99.90;;;;;;5091625;28;20161;-51
2022/11/01 04:57:02;;;;;;;17.70;6.40;;;16.20;99.90;;;;;;5091457;28;20281;-51
2022/11/01 04:59:27;;;;;;;18.90;6.20;;;16.10;99.90;;;;;;5094099;28;20193;-51
2022/11/01 05:01:53;;;;;;;14.57;5.07;;;16.20;99.90;;;;;;5095824;28;20201;-52
2022/11/01 05:04:18;;;;;;;6.25;3.25;;;16.20;99.90;;;;;;5095652;28;20172;-52
2022/11/01 05:06:44;;;;;;;11.43;3.58;;;16.30;99.90;;;;;;5095544;28;20173;-52
2022/11/01 05:09:09;;;;;;;6.82;3.42;;;16.40;99.90;;;;;;5095520;28;20180;-52
2022/11/01 05:11:35;;;;;;;7.07;2.67;;;16.40;99.90;;;;;;5095433;28;20269;-52
2022/11/01 05:14:00;;;;;;;7.35;3.25;;;16.40;99.90;;;;;;5095471;28;20185;-52
2022/11/01 05:16:26;;;;;;;7.13;2.65;;;16.40;99.90;;;;;;5095415;28;20291;-49
2022/11/01 05:18:51;;;;;;;3.25;2.13;;;16.30;99.90;;;;;;5095331;28;20165;-50
2022/11/01 05:21:17;;;;;;;7.40;2.78;;;16.50;99.90;;;;;;5095199;28;20170;-52
2022/11/01 05:23:42;;;;;;;6.35;2.40;;;16.50;99.90;;;;;;5095145;28;20166;-53
2022/11/01 05:26:08;;;;;;;3.25;2.35;;;16.50;99.90;;;;;;5095277;28;20200;-49
2022/11/01 05:28:33;;;;;;;3.22;1.52;;;16.50;99.90;;;;;;5095113;28;20524;-49
2022/11/01 05:30:59;;;;;;;6.15;2.00;;;16.50;99.90;;;;;;5095261;28;20524;-50
2022/11/01 05:33:25;;;;;;;4.10;2.38;;;16.50;99.90;;;;;;5095593;28;20173;-49
2022/11/01 05:35:50;;;;;;;2.28;1.70;;;16.50;99.90;;;;;;5094916;28;20219;-49
2022/11/01 05:38:16;;;;;;;2.15;1.60;;;16.50;99.90;;;;;;5094930;28;20788;-49
2022/11/01 05:40:42;;;;;;;2.20;1.65;;;16.40;99.90;;;;;;5094861;28;20166;-49
2022/11/01 05:43:07;;;;;;;5.38;2.15;;;16.40;99.90;;;;;;5094829;28;20165;-50
2022/11/01 05:45:33;;;;;;;3.22;1.60;;;16.40;99.90;;;;;;5094996;28;20252;-50
2022/11/01 05:48:03;;;;;;;1.33;1.15;;;16.30;99.90;;;;;;5094923;28;20219;-49
2022/11/01 05:50:28;;;;;;;4.65;1.73;;;16.30;99.90;;;;;;5094396;28;20176;-49
2022/11/01 05:52:54;;;;;;;2.45;1.63;;;16.20;99.90;;;;;;5094799;28;20165;-50
2022/11/01 05:55:19;;;;;;;3.45;1.67;;;16.20;99.90;;;;;;5094368;28;20236;-48
2022/11/01 05:57:45;;;;;;;2.40;1.23;;;16.10;99.90;;;;;;5094509;28;20177;-49
2022/11/01 06:00:11;;;;;;;2.65;1.80;;;16.00;99.90;;;;;;5094459;28;20191;-49
2022/11/01 06:02:37;;;;;;;3.53;1.55;;;16.10;99.90;;;;;;5094402;28;20221;-50
2022/11/01 06:05:02;;;;;;;4.97;2.00;;;16.10;99.90;;;;;;5094460;28;20173;-50
2022/11/01 06:07:28;;;;;;;2.15;1.25;;;16.10;99.90;;;;;;5094468;28;20218;-50
2022/11/01 06:09:53;;;;;;;2.60;1.65;;;16.00;99.90;;;;;;5093646;28;20165;-50
2022/11/01 06:12:22;;;;;;;2.65;1.90;;;16.10;99.90;;;;;;5094373;28;20172;-50
2022/11/01 06:14:47;;;;;;;2.60;1.25;;;16.00;99.90;;;;;;5094148;28;20181;-50
2022/11/01 06:17:13;;;;;;;2.22;1.42;;;16.00;99.90;;;;;;5094246;28;20226;-51
2022/11/01 06:19:38;;;;;;;4.47;1.60;;;16.00;99.90;;;;;;5094063;28;20245;-50
2022/11/01 06:22:05;;;;;;;2.67;1.42;;;16.00;99.90;;;;;;5093985;28;20208;-50
2022/11/01 06:24:30;;;;;;;3.72;1.27;;;15.80;99.90;;;;;;5094204;28;20550;-51
2022/11/01 06:26:56;;;;;;;2.38;1.60;;;15.80;99.90;;;;;;5094305;28;20238;-51
2022/11/01 06:29:21;;;;;;;4.65;1.98;;;15.70;99.90;;;;;;5093986;28;20161;-51
2022/11/01 06:31:47;;;;;;;3.92;1.70;;;15.70;99.90;;;;;;5093826;28;20190;-50
2022/11/01 06:34:13;;;;;;;3.83;1.70;;;15.60;99.90;;;;;;5094109;28;20177;-51
2022/11/01 06:36:38;;;;;;;5.63;1.80;;;15.60;99.90;;;;;;5075638;28;20232;-50
2022/11/01 06:39:04;;;;;;;1.55;1.27;;;15.40;99.90;;;;;;5093707;28;20162;-50
2022/11/01 06:41:29;;;;;;;4.30;1.58;;;15.30;99.90;;;;;;5093683;28;20637;-50
2022/11/01 06:43:55;;;;;;;3.00;1.35;;;15.10;99.90;;;;;;5094050;28;20166;-50
2022/11/01 06:46:20;;;;;;;3.75;1.40;;;15.00;99.90;;;;;;5093878;28;20253;-50
2022/11/01 06:48:47;;;;;;;4.35;1.80;;;15.00;99.90;;;;;;5093530;28;20222;-50
2022/11/01 06:51:13;;;;;;;3.67;1.60;;;14.90;99.90;;;;;;5093720;28;20169;-50
2022/11/01 06:53:38;;;;;;;3.67;1.55;;;14.90;99.90;;;;;;5092846;28;20180;-50
2022/11/01 06:56:05;;;;;;;1.95;1.55;;;14.80;99.90;;;;;;5093323;28;20296;-51
2022/11/01 06:58:30;;;;;;;4.63;1.88;;;14.80;99.90;;;;;;5093642;28;20165;-51
2022/11/01 07:00:56;;;;;;;2.33;1.67;;;14.70;99.90;;;;;;5093668;28;20169;-50
2022/11/01 07:03:21;;;;;;;2.60;1.63;;;14.70;99.90;;;;;;5093074;28;20221;-50
2022/11/01 07:05:48;;;;;;;3.53;1.40;;;14.70;99.90;;;;;;5093217;28;20215;-50
2022/11/01 07:08:14;;;;;;;3.00;1.50;;;14.70;99.90;;;;;;5093452;28;20245;-50
2022/11/01 07:10:41;;;;;;;3.88;1.52;;;14.70;99.90;;;;;;5093155;28;20712;-50
2022/11/01 07:13:10;;;;;;;3.35;2.50;;;14.70;99.90;;;;;;5093352;28;20255;-51
2022/11/01 07:15:36;;;;;;;4.05;1.70;;;14.60;99.90;;;;;;5092913;28;20250;-50
2022/11/01 07:18:04;;;;;;;4.10;1.05;;;14.60;99.90;;;;;;5093021;28;20295;-51
2022/11/01 07:20:31;;;;;;;2.80;1.02;;;14.60;99.90;;;;;;5093221;28;20165;-50
2022/11/01 07:23:01;;;;;;;2.83;0.90;;;14.60;99.90;;;;;;5092708;28;20556;-50
2022/11/01 07:25:28;;;;;;;4.30;1.27;;;14.50;99.90;;;;;;5092635;28;20177;-50
2022/11/01 07:27:54;;;;;;;3.67;1.02;;;14.50;99.90;;;;;;5074796;28;20524;-49
2022/11/01 07:30:20;;;;;;;4.32;1.25;;;14.40;99.90;;;;;;5092659;28;20330;-50
2022/11/01 07:32:46;;;;;;;1.20;0.70;;;14.30;99.90;;;;;;5092569;28;20581;-50
2022/11/01 07:35:11;;;;;;;1.50;1.05;;;14.20;99.90;;;;;;5092035;28;20740;-50
2022/11/01 07:37:37;;;;;;;1.58;0.50;;;14.20;99.90;;;;;;5092631;28;20172;-50
2022/11/01 07:40:04;;;;;;;2.65;0.90;;;14.20;99.90;;;;;;5092558;28;20173;-49
2022/11/01 07:42:29;;;;;;;2.97;0.73;;;14.20;99.90;;;;;;5092007;28;20172;-50
2022/11/01 07:44:55;;;;;;;6.95;1.55;;;14.30;99.90;;;;;;5092778;28;20173;-50
2022/11/01 07:47:20;;;;;;;1.52;0.65;;;14.30;99.90;;;;;;5092237;28;20177;-49
2022/11/01 07:49:46;;;;;;;4.63;1.52;;;14.40;99.90;;;;;;5091989;28;20260;-50
2022/11/01 07:52:12;;;;;;;3.25;1.40;;;14.40;99.90;;;;;;5073718;28;20176;-50
2022/11/01 07:54:38;;;;;;;5.82;1.23;;;14.40;99.90;;;;;;5092032;28;20188;-51
2022/11/01 07:57:04;;;;;;;4.80;1.30;;;14.40;99.90;;;;;;5091953;28;20696;-50
2022/11/01 07:59:29;;;;;;;4.53;1.60;;;14.50;99.90;;;;;;5092215;28;20166;-50
2022/11/01 08:01:55;;;;;;;4.07;1.52;;;14.50;99.90;;;;;;5092077;28;20213;-50
2022/11/01 08:04:20;;;;;;;2.50;1.60;;;14.50;99.90;;;;;;5092052;28;20174;-50
2022/11/01 08:06:46;;;;;;;10.68;2.53;;;14.60;99.90;;;;;;5091761;28;20165;-50
2022/11/01 08:09:11;;;;;;;5.78;1.88;;;14.60;99.90;;;;;;5091910;28;20165;-51
2022/11/01 08:11:37;;;;;;;8.20;2.55;;;14.60;99.90;;;;;;5091896;28;20176;-50
2022/11/01 08:14:02;;;;;;;11.50;2.25;;;14.70;99.90;;;;;;5092116;28;20238;-50
2022/11/01 08:16:30;;;;;;;6.78;1.88;;;14.70;99.90;;;;;;5092072;28;20216;-51
2022/11/01 08:18:56;;;;;;;6.00;1.67;;;14.70;99.90;;;;;;5091657;28;20171;-50
2022/11/01 08:21:22;;;;;;;11.65;1.77;;;14.70;99.90;;;;;;5092073;28;20165;-51
2022/11/01 08:23:47;;;;;;;7.90;1.77;;;14.80;99.90;;;;;;5091898;28;20193;-51
2022/11/01 08:26:14;;;;;;;8.32;1.92;;;14.80;99.90;;;;;;5071829;28;20197;-50
2022/11/01 08:28:39;;;;;;;4.32;1.23;;;14.90;99.90;;;;;;5089602;28;20248;-51
2022/11/01 08:31:07;;;;;;;6.75;1.80;;;14.90;99.90;;;;;;5090447;28;20260;-51
2022/11/01 08:33:32;;;;;;;10.82;2.17;;;15.00;99.90;;;;;;5089943;28;20405;-49
2022/11/01 08:35:58;;;;;;;10.98;1.90;;;15.10;99.90;;;;;;5090386;28;20643;-54
2022/11/01 08:38:24;;;;;;;8.57;1.80;;;15.10;99.90;;;;;;5090900;28;20173;-47
2022/11/01 08:40:49;;;;;;;6.05;1.65;;;15.10;99.90;;;;;;5090006;28;20515;-52
2022/11/01 08:43:16;;;;;;;5.00;2.92;;;15.10;99.90;;;;;;5090401;28;20234;-53
2022/11/01 08:45:41;;;;;;;8.32;2.03;;;15.10;99.90;;;;;;5090464;28;20181;-48
2022/11/01 08:48:08;;;;;;;10.55;1.88;;;15.10;99.90;;;;;;5091265;28;20203;-49
2022/11/01 08:50:34;;;;;;;2.80;1.40;;;15.20;99.90;;;;;;5091796;28;20165;-52
2022/11/01 08:53:08;;;;;;;5.97;1.45;;;15.20;99.90;;;;;;5091543;28;20506;-51
2022/11/01 08:55:35;;;;;;;4.32;1.25;;;15.10;99.90;;;;;;5091483;28;20233;-51
2022/11/01 08:58:00;;;;;;;5.68;1.50;;;15.10;99.90;;;;;;5091325;28;20181;-51
2022/11/01 09:00:26;;;;;;;4.93;1.23;;;15.20;99.90;;;;;;5108997;28;20179;-51
2022/11/01 09:02:52;;;;;;;4.88;1.17;;;15.20;99.90;;;;;;5111641;28;20212;-51
2022/11/01 09:05:18;;;;;;;6.00;1.42;;;15.10;99.90;;;;;;5112058;28;20168;-51
2022/11/01 09:07:43;;;;;;;10.43;1.80;;;15.20;99.90;;;;;;5111809;28;20180;-51
2022/11/01 09:10:09;;;;;;;4.22;1.00;;;15.30;99.90;;;;;;5111805;28;20173;-51
2022/11/01 09:12:36;;;;;;;8.52;2.17;;;15.30;99.90;;;;;;5111828;28;20161;-52
2022/11/01 09:15:02;;;;;;;4.97;1.92;;;15.40;99.90;;;;;;5111722;28;20180;-51
2022/11/01 09:17:29;;;;;;;3.90;1.70;;;15.40;99.90;;;;;;5111878;28;20689;-51
2022/11/01 09:19:54;;;;;;;6.65;1.65;;;15.40;99.90;;;;;;5112178;28;20169;-50
2022/11/01 09:22:20;;;;;;;6.18;1.40;;;15.60;99.90;;;;;;5111700;28;20214;-50
2022/11/01 09:24:46;;;;;;;7.07;1.42;;;15.50;99.90;;;;;;5093674;28;20169;-50
2022/11/01 09:27:11;;;;;;;6.97;2.22;;;15.60;99.90;;;;;;5111904;28;20180;-50
2022/11/01 09:29:37;;;;;;;4.50;1.60;;;15.70;99.90;;;;;;5093552;28;20552;-52
2022/11/01 09:32:03;;;;;;;9.05;1.48;;;15.70;99.90;;;;;;5111547;28;20253;-51
2022/11/01 09:34:28;;;;;;;7.80;1.63;;;15.70;99.90;;;;;;5111575;28;20161;-50
2022/11/01 09:36:54;;;;;;;12.90;2.35;;;15.80;99.90;;;;;;5111879;28;20201;-49
2022/11/01 09:39:20;;;;;;;4.47;1.70;;;15.90;99.90;;;;;;5111440;28;20169;-50
2022/11/01 09:42:00;;;;;;;4.93;1.85;;;15.80;99.90;;;;;;5111663;28;20252;-52
2022/11/01 09:44:34;;;;;;;7.05;2.20;;;15.90;99.90;;;;;;5112060;28;20164;-49
2022/11/01 09:47:04;;;;;;;7.13;1.65;;;16.10;99.90;;;;;;5115151;28;20259;-52
2022/11/01 09:49:36;;;;;;;12.10;2.42;;;16.00;99.90;;;;;;5096867;28;20238;-50
2022/11/01 09:52:04;;;;;;;6.43;1.92;;;16.00;99.90;;;;;;5115060;28;20656;-52
2022/11/01 09:54:31;;;;;;;4.43;1.70;;;16.00;99.90;;;;;;5115118;28;20229;-52
2022/11/01 09:57:02;;;;;;;5.57;1.85;;;16.10;99.90;;;;;;5114906;28;20204;-51
2022/11/01 09:59:52;;;;;;;4.80;1.85;;;16.20;99.90;;;;;;5114967;28;20169;-52
2022/11/01 10:02:55;;;;;;;6.10;1.85;;;16.20;99.90;;;;;;5114516;28;20212;-49
2022/11/01 10:05:47;;;;;;;7.65;1.73;;;16.30;99.90;;;;;;5115395;28;20168;-52
2022/11/01 10:08:45;;;;;;;4.63;1.38;;;16.30;99.90;;;;;;5114737;28;20171;-51
2022/11/01 10:11:48;;;;;;;9.70;1.83;;;16.50;99.90;;;;;;5083585;28;20652;-51
2022/11/01 10:14:38;;;;;;;6.93;2.10;;;16.40;99.90;;;;;;5114845;28;20176;-50
2022/11/01 10:17:13;;;;;;;4.05;1.70;;;16.50;99.90;;;;;;5114492;28;20291;-50
2022/11/01 10:19:44;;;;;;;7.20;1.85;;;16.60;99.90;;;;;;5114573;28;20239;-51
2022/11/01 10:22:28;;;;;;;8.45;1.70;;;16.60;99.90;;;;;;5114519;28;20169;-51
2022/11/01 10:24:54;;;;;;;8.60;2.08;;;16.80;99.90;;;;;;5114818;28;20169;-51
2022/11/01 10:27:52;;;;;;;7.00;2.00;;;16.50;99.90;;;;;;5114397;28;20161;-52
2022/11/01 10:30:18;;;;;;;7.15;1.73;;;16.70;99.90;;;;;;5114173;28;20172;-49
2022/11/01 10:33:01;;;;;;;6.13;1.70;;;16.70;99.90;;;;;;5114432;28;20172;-49
2022/11/01 10:35:42;;;;;;;9.95;2.08;;;16.80;99.90;;;;;;5114145;28;20223;-50
2022/11/01 10:38:15;;;;;;;6.63;1.70;;;16.80;99.90;;;;;;5114249;28;20179;-49
2022/11/01 10:40:46;;;;;;;6.93;1.73;;;16.80;99.90;;;;;;5114151;28;20161;-49
2022/11/01 10:43:18;;;;;;;9.32;1.67;;;16.80;99.90;;;;;;5114049;28;20181;-49
2022/11/01 10:45:46;;;;;;;6.40;1.80;;;16.70;99.90;;;;;;5113919;28;20175;-48
2022/11/01 10:48:36;;;;;;;5.75;1.42;;;16.70;99.90;;;;;;5114250;28;20164;-49
2022/11/01 10:51:05;;;;;;;4.00;1.65;;;16.70;99.90;;;;;;5113516;28;20180;-49
2022/11/01 10:53:35;;;;;;;7.63;1.92;;;16.90;99.90;;;;;;5114118;28;20164;-49
2022/11/01 10:56:07;;;;;;;5.45;1.70;;;16.80;99.90;;;;;;5112984;28;20287;-48
2022/11/01 10:58:53;;;;;;;7.07;1.63;;;16.80;99.90;;;;;;5113640;28;20180;-48
2022/11/01 11:01:23;;;;;;;8.65;2.10;;;16.90;99.90;;;;;;5113915;28;20255;-48
2022/11/01 11:03:50;;;;;;;9.43;2.08;;;17.00;99.90;;;;;;5095526;28;20577;-49
2022/11/01 11:06:17;;;;;;;6.85;2.10;;;17.10;99.90;;;;;;5113531;28;20616;-49
2022/11/01 11:08:48;;;;;;;6.43;2.00;;;17.10;99.90;;;;;;5113718;28;20188;-48
2022/11/01 11:11:16;;;;;;;5.72;1.58;;;17.00;99.90;;;;;;5113396;28;20632;-50
2022/11/01 11:13:46;;;;;;;6.15;2.03;;;16.90;99.90;;;;;;5113128;28;20195;-50
2022/11/01 11:16:45;;;;;;;13.07;2.40;;;16.90;99.90;;;;;;5113349;28;20684;-50
2022/11/01 11:19:21;;;;;;;10.32;2.25;;;16.80;99.90;;;;;;5113142;28;20658;-50
2022/11/01 11:21:50;;;;;;;4.90;1.50;;;17.00;99.90;;;;;;5113101;28;20184;-51
2022/11/01 11:24:32;;;;;;;9.70;2.10;;;16.80;99.90;;;;;;5113557;28;20240;-50
2022/11/01 11:26:59;;;;;;;8.80;1.90;;;17.00;99.90;;;;;;5113088;28;20161;-51
2022/11/01 11:29:28;;;;;;;9.02;2.30;;;17.00;99.90;;;;;;5113749;28;20614;-50
2022/11/01 11:31:56;;;;;;;10.20;2.33;;;16.90;99.90;;;;;;5113418;28;20217;-50
2022/11/01 11:34:31;;;;;;;10.98;2.13;;;17.00;99.90;;;;;;5113450;28;20180;-51
2022/11/01 11:36:57;;;;;;;8.15;2.33;;;17.10;99.90;;;;;;5112970;28;20214;-50
2022/11/01 11:39:28;;;;;;;9.55;2.38;;;17.20;99.90;;;;;;5113355;28;20165;-48
2022/11/01 11:42:08;;;;;;;9.02;2.05;;;17.20;99.90;;;;;;5113092;28;20175;-50
2022/11/01 11:44:33;;;;;;;11.00;2.15;;;17.20;99.90;;;;;;5113233;28;20176;-49
2022/11/01 11:47:01;;;;;;;10.30;1.90;;;17.20;99.90;;;;;;5112612;28;20247;-50
2022/11/01 11:49:28;;;;;;;8.52;1.90;;;17.30;99.90;;;;;;5112790;28;20200;-53
2022/11/01 11:51:54;;;;;;;9.68;2.15;;;17.20;99.90;;;;;;5095085;28;20175;-52
2022/11/01 11:54:21;;;;;;;8.32;1.95;;;17.10;99.90;;;;;;5112737;28;20256;-52
2022/11/01 11:56:50;;;;;;;5.93;2.38;;;17.10;99.90;;;;;;5094251;28;20204;-52
2022/11/01 11:59:24;;;;;;;9.90;2.05;;;17.10;99.90;;;;;;5094240;28;20160;-51
2022/11/01 12:01:58;;;;;;;8.65;1.98;;;17.10;99.90;;;;;;5112691;28;20207;-51
2022/11/01 12:04:35;;;;;;;8.93;2.55;;;17.10;99.90;;;;;;5112669;28;20157;-51
2022/11/01 12:07:01;;;;;;;15.20;2.28;;;17.10;99.90;;;;;;5112502;28;20163;-52
2022/11/01 12:09:46;;;;;;;9.85;2.30;;;17.10;99.90;;;;;;5111492;28;20251;-52
2022/11/01 12:12:24;;;;;;;6.95;1.65;;;17.00;99.90;;;;;;5112280;28;20255;-52
2022/11/01 12:14:50;;;;;;;6.85;1.77;;;16.90;99.90;;;;;;5112320;28;20229;-52
2022/11/01 12:17:22;;;;;;;6.63;2.05;;;16.90;99.90;;;;;;5112577;28;20595;-52
2022/11/01 12:19:47;;;;;;;4.93;1.90;;;16.90;99.90;;;;;;5093987;28;20523;-52
2022/11/01 12:22:14;;;;;;;8.02;2.38;;;17.00;99.90;;;;;;5112260;28;20164;-50
2022/11/01 12:25:03;;;;;;;9.98;1.92;;;17.00;99.90;;;;;;5093935;28;20584;-52
2022/11/01 12:27:33;;;;;;;7.63;2.05;;;17.10;99.90;;;;;;5112554;28;20172;-51
2022/11/01 12:30:14;;;;;;;4.50;2.00;;;16.90;99.90;;;;;;5112161;28;20165;-52
2022/11/01 12:32:55;;;;;;;5.20;1.90;;;17.00;99.90;;;;;;5112169;28;20255;-51
2022/11/01 12:35:32;;;;;;;9.55;2.25;;;17.00;99.90;;;;;;5112498;28;20188;-51
2022/11/01 12:38:23;;;;;;;6.07;1.63;;;17.00;99.90;;;;;;5112222;28;20164;-51
2022/11/01 12:40:51;;;;;;;6.07;1.60;;;16.90;99.90;;;;;;5112391;28;20211;-50
2022/11/01 12:43:58;;;;;;;8.65;2.03;;;17.00;99.90;;;;;;5111976;28;20173;-51
2022/11/01 12:46:34;;;;;;;10.75;2.30;;;16.90;99.90;;;;;;5112683;28;20583;-51
2022/11/01 12:49:31;;;;;;;6.25;1.60;;;17.00;99.90;;;;;;5112322;28;20172;-50
2022/11/01 12:52:05;;;;;;;8.02;1.85;;;17.10;99.90;;;;;;5111996;28;20160;-51
2022/11/01 12:54:42;;;;;;;5.70;1.65;;;17.10;99.90;;;;;;5093401;28;20175;-49
2022/11/01 12:57:16;;;;;;;8.43;2.05;;;17.10;99.90;;;;;;5111589;28;20554;-50
2022/11/01 12:59:42;;;;;;;8.05;1.95;;;17.10;99.90;;;;;;5093783;28;20164;-50
2022/11/01 13:02:20;;;;;;;9.07;2.28;;;17.10;99.90;;;;;;5111802;28;20227;-50
2022/11/01 13:05:01;;;;;;;5.60;2.17;;;17.10;99.90;;;;;;5111735;28;20207;-51
2022/11/01 13:08:09;;;;;;;5.38;1.90;;;17.10;99.90;;;;;;5112125;28;20173;-50
2022/11/01 13:10:39;;;;;;;4.80;2.28;;;17.10;99.90;;;;;;5112045;28;20169;-49